Time;durP1;ratioP1;P1;durP2;ratioP2;P2;SDS_P1;SDS_P2;PMS_P1;PMS_P2;Temp;Humidity;BMP_temperature;BMP_pressure;BME280_temperature;BME280_humidity;BME280_pressure;Samples;Min_cycle;Max_cycle;Signal;HPM_P1;HPM_P2
2021/08/11 00:00:27;;;;;;;5.03;4.57;;;14.70;99.90;;;;;;5048158;28;20182;-74
2021/08/11 00:02:52;;;;;;;6.50;4.10;;;14.80;99.90;;;;;;5051392;28;20433;-74
2021/08/11 00:05:18;;;;;;;4.80;3.90;;;14.80;99.90;;;;;;5052040;28;20204;-75
2021/08/11 00:07:43;;;;;;;4.87;4.40;;;14.70;99.90;;;;;;5053967;28;20186;-75
2021/08/11 00:10:10;;;;;;;4.83;4.37;;;14.90;99.90;;;;;;5052219;28;20673;-74
2021/08/11 00:12:35;;;;;;;5.13;4.43;;;15.00;99.90;;;;;;5053781;28;20651;-75
2021/08/11 00:15:02;;;;;;;5.13;4.40;;;14.90;99.90;;;;;;5053784;28;20433;-75
2021/08/11 00:17:27;;;;;;;5.50;4.70;;;14.90;99.90;;;;;;5052525;28;20187;-75
2021/08/11 00:19:53;;;;;;;4.80;4.30;;;14.90;99.90;;;;;;5056978;28;20433;-74
2021/08/11 00:22:18;;;;;;;4.23;3.80;;;14.80;99.90;;;;;;5052249;28;20566;-75
2021/08/11 00:24:44;;;;;;;4.43;4.03;;;14.80;99.90;;;;;;5052006;28;20390;-75
2021/08/11 00:27:09;;;;;;;4.57;4.20;;;14.80;99.90;;;;;;5048738;28;20194;-75
2021/08/11 00:29:35;;;;;;;4.60;4.20;;;14.60;99.90;;;;;;5056064;28;20213;-75
2021/08/11 00:32:01;;;;;;;5.23;4.73;;;14.80;99.90;;;;;;5057917;28;20206;-75
2021/08/11 00:34:29;;;;;;;9.60;4.73;;;14.60;99.90;;;;;;5057175;28;20186;-76
2021/08/11 00:36:55;;;;;;;5.20;4.60;;;14.60;99.90;;;;;;5053201;28;20189;-76
2021/08/11 00:39:20;;;;;;;4.40;4.00;;;14.60;99.90;;;;;;5052328;28;20536;-76
2021/08/11 00:41:46;;;;;;;5.27;4.10;;;14.70;99.90;;;;;;5053323;28;20194;-76
2021/08/11 00:44:13;;;;;;;4.47;4.07;;;14.40;99.90;;;;;;5050719;28;20186;-76
2021/08/11 00:46:45;;;;;;;4.60;4.20;;;14.50;99.90;;;;;;5053391;28;20186;-75
2021/08/11 00:49:14;;;;;;;4.93;4.53;;;14.40;99.90;;;;;;5050002;28;20433;-76
2021/08/11 00:51:41;;;;;;;4.07;3.67;;;14.50;99.90;;;;;;5055199;28;20908;-76
2021/08/11 00:54:08;;;;;;;5.30;4.60;;;14.40;99.90;;;;;;5047306;28;20809;-76
2021/08/11 00:56:34;;;;;;;4.90;4.40;;;14.50;99.90;;;;;;5057707;28;20429;-76
2021/08/11 00:59:03;;;;;;;5.03;4.50;;;14.50;99.90;;;;;;5051066;28;20434;-76
2021/08/11 01:01:33;;;;;;;6.03;4.90;;;14.50;99.90;;;;;;5055314;28;20495;-76
2021/08/11 01:04:02;;;;;;;4.37;3.97;;;14.40;99.90;;;;;;5053550;28;20504;-76
2021/08/11 01:06:31;;;;;;;4.87;4.47;;;14.40;99.90;;;;;;5051778;28;20489;-76
2021/08/11 01:08:57;;;;;;;7.07;5.20;;;14.20;99.90;;;;;;5041398;28;20425;-76
2021/08/11 01:11:26;;;;;;;5.40;4.90;;;14.50;99.90;;;;;;5052511;28;20436;-75
2021/08/11 01:13:52;;;;;;;4.60;4.20;;;14.30;99.90;;;;;;5053078;28;20429;-75
2021/08/11 01:16:18;;;;;;;4.90;4.40;;;14.40;99.90;;;;;;5047423;28;20462;-76
2021/08/11 01:18:43;;;;;;;5.03;4.60;;;14.40;99.90;;;;;;5054663;28;20645;-75
2021/08/11 01:21:17;;;;;;;4.63;4.17;;;14.40;99.90;;;;;;5056562;28;20432;-75
2021/08/11 01:24:04;;;;;;;4.63;4.23;;;14.30;99.90;;;;;;5053991;28;20236;-75
2021/08/11 01:26:58;;;;;;;5.37;4.40;;;14.40;99.90;;;;;;5050266;28;20432;-76
2021/08/11 01:30:01;;;;;;;5.73;5.23;;;14.40;99.90;;;;;;5053033;28;20901;-76
2021/08/11 01:32:42;;;;;;;5.70;4.53;;;14.30;99.90;;;;;;5039186;28;20487;-76
2021/08/11 01:35:11;;;;;;;4.93;4.43;;;14.60;99.90;;;;;;5056471;28;20436;-76
2021/08/11 01:37:40;;;;;;;4.87;4.07;;;14.40;99.90;;;;;;5054624;28;20515;-76
2021/08/11 01:40:09;;;;;;;5.20;4.70;;;14.40;99.90;;;;;;5051065;28;20535;-75
2021/08/11 01:42:44;;;;;;;4.40;4.00;;;14.20;99.90;;;;;;5044729;28;20883;-76
2021/08/11 01:45:16;;;;;;;5.60;4.57;;;14.40;99.90;;;;;;5038702;28;20451;-75
2021/08/11 01:47:58;;;;;;;4.63;4.23;;;14.30;99.90;;;;;;5048189;28;20433;-76
2021/08/11 01:50:25;;;;;;;5.83;4.77;;;14.20;99.90;;;;;;5038413;28;20483;-75
2021/08/11 01:52:53;;;;;;;4.60;4.20;;;14.10;99.90;;;;;;5043721;28;20463;-75
2021/08/11 01:55:18;;;;;;;4.63;4.23;;;14.30;99.90;;;;;;5042811;28;20425;-75
2021/08/11 01:57:50;;;;;;;4.30;3.90;;;14.10;99.90;;;;;;5044184;28;20781;-75
2021/08/11 02:00:17;;;;;;;5.30;4.00;;;14.40;99.90;;;;;;5035148;28;20253;-75
2021/08/11 02:02:45;;;;;;;5.40;4.80;;;14.10;99.90;;;;;;5044746;28;20428;-75
2021/08/11 02:05:11;;;;;;;4.53;4.13;;;14.30;99.90;;;;;;5045962;28;20440;-75
2021/08/11 02:07:39;;;;;;;5.67;5.10;;;14.20;99.90;;;;;;5044079;28;20429;-75
2021/08/11 02:10:07;;;;;;;5.60;4.90;;;14.10;99.90;;;;;;5044767;28;20436;-76
2021/08/11 02:12:32;;;;;;;5.90;4.03;;;14.00;99.90;;;;;;5048091;28;20530;-77
2021/08/11 02:14:58;;;;;;;5.03;4.63;;;14.00;99.90;;;;;;5047557;28;20931;-76
2021/08/11 02:17:24;;;;;;;4.70;4.30;;;14.20;99.90;;;;;;5050163;28;20569;-76
2021/08/11 02:19:50;;;;;;;4.43;4.03;;;14.00;99.90;;;;;;5051335;28;20433;-76
2021/08/11 02:22:16;;;;;;;5.27;4.40;;;14.10;99.90;;;;;;5047849;28;20248;-76
2021/08/11 02:24:41;;;;;;;5.57;5.00;;;14.10;99.90;;;;;;5047834;28;20277;-76
2021/08/11 02:27:15;;;;;;;4.47;4.07;;;14.10;99.90;;;;;;5045975;28;20524;-76
2021/08/11 02:29:50;;;;;;;5.37;4.83;;;13.80;99.90;;;;;;5047923;28;20178;-76
2021/08/11 02:32:44;;;;;;;4.60;4.20;;;14.00;99.90;;;;;;5047273;28;20517;-76
2021/08/11 02:35:20;;;;;;;6.37;5.60;;;13.80;99.90;;;;;;5042240;28;20482;-76
2021/08/11 02:38:13;;;;;;;5.60;5.00;;;13.70;99.90;;;;;;5046191;28;20799;-76
2021/08/11 02:41:02;;;;;;;5.30;4.80;;;13.70;99.90;;;;;;5041669;28;20864;-76
2021/08/11 02:43:36;;;;;;;4.77;4.27;;;13.90;99.90;;;;;;5047489;28;20512;-76
2021/08/11 02:46:20;;;;;;;4.93;4.43;;;13.60;99.90;;;;;;5050734;28;20805;-76
2021/08/11 02:48:53;;;;;;;4.67;4.27;;;13.80;99.90;;;;;;5051097;28;20550;-75
2021/08/11 02:51:19;;;;;;;4.80;4.30;;;14.00;99.90;;;;;;5046891;28;20978;-76
2021/08/11 02:53:45;;;;;;;5.50;5.00;;;13.80;99.90;;;;;;5045249;28;20464;-76
2021/08/11 02:56:14;;;;;;;5.30;4.80;;;13.70;99.90;;;;;;5043933;28;20954;-76
2021/08/11 02:58:41;;;;;;;5.10;4.30;;;13.70;99.90;;;;;;5046926;28;20281;-76
2021/08/11 03:01:07;;;;;;;5.50;4.50;;;14.10;99.90;;;;;;5045735;28;20981;-76
2021/08/11 03:03:32;;;;;;;5.07;3.93;;;14.00;99.90;;;;;;5047114;28;21178;-75
2021/08/11 03:05:58;;;;;;;5.50;4.70;;;13.70;99.90;;;;;;5045271;28;20461;-76
2021/08/11 03:08:25;;;;;;;5.07;4.17;;;13.60;99.90;;;;;;5047026;28;20721;-75
2021/08/11 03:10:50;;;;;;;6.67;4.40;;;13.70;99.90;;;;;;5048750;28;20384;-75
2021/08/11 03:13:17;;;;;;;5.40;4.30;;;13.60;99.90;;;;;;5046833;28;20585;-76
2021/08/11 03:15:44;;;;;;;5.77;4.47;;;13.90;99.90;;;;;;5046961;28;20498;-76
2021/08/11 03:18:10;;;;;;;4.90;4.40;;;13.90;99.90;;;;;;5044998;28;20940;-75
2021/08/11 03:20:37;;;;;;;6.30;5.07;;;13.80;99.90;;;;;;5048429;28;20475;-75
2021/08/11 03:23:03;;;;;;;5.43;4.93;;;13.40;99.90;;;;;;5046978;28;20436;-75
2021/08/11 03:25:29;;;;;;;5.50;3.93;;;13.60;99.90;;;;;;5045103;28;20428;-75
2021/08/11 03:27:54;;;;;;;6.13;4.97;;;13.70;99.90;;;;;;5046687;28;20443;-75
2021/08/11 03:30:20;;;;;;;5.90;4.53;;;13.70;99.90;;;;;;5046342;28;20190;-76
2021/08/11 03:32:45;;;;;;;5.67;4.87;;;13.40;99.90;;;;;;5041320;28;20564;-76
2021/08/11 03:35:11;;;;;;;5.30;4.17;;;13.70;99.90;;;;;;5044694;28;20555;-75
2021/08/11 03:37:36;;;;;;;4.70;4.30;;;13.80;99.90;;;;;;5046324;28;20217;-75
2021/08/11 03:40:02;;;;;;;5.00;4.50;;;13.50;99.90;;;;;;5048280;28;20179;-76
2021/08/11 03:42:28;;;;;;;6.20;5.37;;;13.30;99.90;;;;;;5046040;28;20222;-75
2021/08/11 03:44:53;;;;;;;5.77;4.33;;;13.30;99.90;;;;;;5048290;28;20460;-75
2021/08/11 03:47:20;;;;;;;4.80;4.30;;;13.30;99.90;;;;;;5043897;28;20595;-76
2021/08/11 03:49:46;;;;;;;5.30;4.37;;;13.40;99.90;;;;;;5044247;28;20443;-76
2021/08/11 03:52:12;;;;;;;6.27;5.00;;;13.20;99.90;;;;;;5044526;28;20730;-75
2021/08/11 03:54:37;;;;;;;5.83;5.17;;;13.60;99.90;;;;;;5042498;28;20429;-75
2021/08/11 03:57:03;;;;;;;5.57;4.97;;;13.40;99.90;;;;;;5042399;28;20432;-75
2021/08/11 03:59:29;;;;;;;4.73;4.33;;;13.20;99.90;;;;;;5046145;28;20186;-76
2021/08/11 04:01:55;;;;;;;5.87;4.90;;;13.60;99.90;;;;;;5046022;28;20301;-77
2021/08/11 04:04:21;;;;;;;5.60;5.10;;;13.40;99.90;;;;;;5043630;28;20191;-77
2021/08/11 04:06:46;;;;;;;5.20;4.70;;;13.60;99.90;;;;;;5048019;28;20502;-76
2021/08/11 04:09:12;;;;;;;4.87;4.37;;;13.60;99.90;;;;;;5049614;28;20248;-76
2021/08/11 04:11:38;;;;;;;5.10;4.70;;;14.00;99.90;;;;;;5045418;28;20634;-76
2021/08/11 04:14:03;;;;;;;5.20;4.70;;;13.90;99.90;;;;;;5047382;28;20186;-77
2021/08/11 04:16:29;;;;;;;5.87;5.20;;;13.90;99.90;;;;;;5042343;28;20194;-76
2021/08/11 04:18:54;;;;;;;4.80;4.40;;;13.50;99.90;;;;;;5046093;28;20235;-76
2021/08/11 04:21:20;;;;;;;7.00;4.27;;;13.70;99.90;;;;;;5043527;28;20175;-76
2021/08/11 04:23:46;;;;;;;5.57;4.20;;;13.60;99.90;;;;;;5043284;28;20197;-76
2021/08/11 04:26:12;;;;;;;4.87;4.47;;;13.80;99.90;;;;;;5042310;28;20902;-76
2021/08/11 04:28:37;;;;;;;4.93;4.43;;;13.60;99.90;;;;;;5044145;28;20279;-76
2021/08/11 04:31:03;;;;;;;4.50;4.10;;;13.50;99.90;;;;;;5042368;28;20197;-77
2021/08/11 04:33:29;;;;;;;5.00;4.47;;;13.50;99.90;;;;;;5045152;28;20251;-77
2021/08/11 04:35:54;;;;;;;4.63;4.20;;;13.50;99.90;;;;;;5047575;28;20221;-76
2021/08/11 04:38:20;;;;;;;5.20;4.70;;;13.60;99.90;;;;;;5043117;28;20271;-76
2021/08/11 04:40:45;;;;;;;5.40;4.83;;;13.40;99.90;;;;;;5043939;28;20178;-76
2021/08/11 04:43:11;;;;;;;5.83;4.70;;;13.60;99.90;;;;;;5043477;28;20250;-76
2021/08/11 04:45:39;;;;;;;5.70;4.97;;;13.60;99.90;;;;;;5044838;28;20194;-76
2021/08/11 04:48:05;;;;;;;5.60;5.10;;;13.60;99.90;;;;;;5045059;28;20202;-76
2021/08/11 04:50:30;;;;;;;4.90;4.40;;;13.60;99.90;;;;;;5039767;28;20822;-76
2021/08/11 04:52:56;;;;;;;5.00;4.00;;;13.60;99.90;;;;;;5041527;28;20473;-76
2021/08/11 04:55:21;;;;;;;5.73;4.87;;;13.60;99.90;;;;;;5043454;28;20277;-76
2021/08/11 04:57:47;;;;;;;4.60;4.20;;;13.90;99.90;;;;;;5045841;28;20178;-76
2021/08/11 05:00:13;;;;;;;6.83;6.23;;;13.80;99.90;;;;;;5045345;28;20265;-76
2021/08/11 05:02:38;;;;;;;7.47;5.43;;;13.90;99.90;;;;;;5046719;28;20187;-76
2021/08/11 05:05:06;;;;;;;7.17;5.90;;;13.70;99.90;;;;;;5042404;28;20429;-76
2021/08/11 05:07:31;;;;;;;6.17;5.53;;;13.90;99.90;;;;;;5044770;28;20190;-76
2021/08/11 05:09:57;;;;;;;7.57;5.50;;;13.90;99.90;;;;;;5046198;28;20487;-79
2021/08/11 05:12:24;;;;;;;6.90;5.50;;;14.50;99.90;;;;;;5041657;28;20221;-79
2021/08/11 05:14:51;;;;;;;5.80;5.23;;;14.90;99.90;;;;;;5040766;28;20190;-79
2021/08/11 05:17:21;;;;;;;6.23;5.10;;;15.30;99.90;;;;;;5044810;28;20912;-79
2021/08/11 05:19:47;;;;;;;4.80;4.40;;;15.50;99.90;;;;;;5044571;28;20433;-80
2021/08/11 05:22:13;;;;;;;5.00;4.47;;;16.10;99.90;;;;;;5040885;28;20486;-79
2021/08/11 05:24:38;;;;;;;5.30;4.80;;;16.30;99.90;;;;;;5042963;28;20433;-79
2021/08/11 05:27:04;;;;;;;5.53;4.93;;;16.60;99.90;;;;;;5044629;28;20433;-79
2021/08/11 05:29:31;;;;;;;6.00;4.40;;;17.00;99.90;;;;;;5046074;28;20711;-80
2021/08/11 05:31:57;;;;;;;4.47;4.07;;;17.40;99.90;;;;;;5044462;28;20217;-80
2021/08/11 05:34:22;;;;;;;4.40;4.00;;;17.50;99.90;;;;;;5042930;28;21085;-80
2021/08/11 05:36:48;;;;;;;4.57;4.23;;;17.90;99.90;;;;;;5044273;28;20180;-80
2021/08/11 05:39:13;;;;;;;4.80;4.33;;;18.30;99.90;;;;;;5046795;28;20211;-80
2021/08/11 05:41:39;;;;;;;4.70;4.30;;;18.80;99.90;;;;;;5050189;28;20665;-80
2021/08/11 05:44:05;;;;;;;4.93;4.53;;;18.80;99.90;;;;;;5047448;28;20185;-80
2021/08/11 05:46:31;;;;;;;4.20;3.90;;;18.70;99.90;;;;;;5050453;28;20199;-79
2021/08/11 05:48:56;;;;;;;4.57;4.23;;;18.90;99.90;;;;;;5048466;28;20457;-77
2021/08/11 05:51:22;;;;;;;5.03;4.53;;;19.20;99.90;;;;;;5044234;28;20710;-78
2021/08/11 05:53:48;;;;;;;5.63;4.60;;;19.60;99.90;;;;;;5046854;28;20209;-79
2021/08/11 05:56:13;;;;;;;4.93;4.43;;;19.90;99.90;;;;;;5049814;28;20418;-77
2021/08/11 05:58:39;;;;;;;5.63;5.13;;;20.30;99.90;;;;;;5051731;28;20651;-77
2021/08/11 06:01:07;;;;;;;5.60;5.10;;;20.70;99.90;;;;;;5045274;28;20177;-78
2021/08/11 06:03:32;;;;;;;10.00;4.60;;;20.70;99.90;;;;;;5048175;28;20285;-78
2021/08/11 06:05:58;;;;;;;5.27;4.77;;;21.60;99.90;;;;;;5048313;28;20516;-78
2021/08/11 06:08:24;;;;;;;5.90;4.63;;;21.90;99.90;;;;;;5046280;28;20182;-78
2021/08/11 06:10:49;;;;;;;6.40;5.20;;;22.20;99.90;;;;;;5049077;28;20187;-78
2021/08/11 06:13:14;;;;;;;4.90;4.57;;;22.40;99.90;;;;;;5046342;28;20229;-78
2021/08/11 06:15:40;;;;;;;5.40;4.83;;;22.90;99.20;;;;;;5046369;28;20178;-79
2021/08/11 06:18:05;;;;;;;5.77;4.63;;;23.10;97.80;;;;;;5044654;28;20266;-79
2021/08/11 06:20:31;;;;;;;5.17;4.77;;;24.10;95.00;;;;;;5047932;28;20185;-79
2021/08/11 06:22:56;;;;;;;4.70;4.30;;;24.00;93.30;;;;;;5047193;28;20193;-79
2021/08/11 06:25:22;;;;;;;4.80;4.40;;;24.00;90.70;;;;;;5047993;28;20268;-79
2021/08/11 06:27:48;;;;;;;4.50;4.20;;;24.00;89.90;;;;;;5051369;28;20319;-79
2021/08/11 06:30:14;;;;;;;5.57;4.63;;;23.70;89.70;;;;;;5047500;28;20198;-79
2021/08/11 06:32:39;;;;;;;4.90;4.50;;;23.60;89.80;;;;;;5046002;28;20228;-79
2021/08/11 06:35:06;;;;;;;5.20;4.70;;;23.10;89.70;;;;;;5044131;28;20435;-78
2021/08/11 06:37:31;;;;;;;5.03;4.63;;;23.00;90.60;;;;;;5045957;28;20228;-78
2021/08/11 06:39:57;;;;;;;4.57;4.27;;;22.70;91.10;;;;;;5043975;28;20430;-77
2021/08/11 06:42:23;;;;;;;4.83;4.37;;;22.50;92.10;;;;;;5047584;28;20214;-77
2021/08/11 06:44:48;;;;;;;5.27;4.87;;;22.10;92.70;;;;;;5047722;28;20185;-78
2021/08/11 06:47:14;;;;;;;5.27;4.80;;;22.20;93.70;;;;;;5042214;28;20745;-77
2021/08/11 06:49:39;;;;;;;5.70;5.20;;;22.00;94.80;;;;;;5044956;28;20675;-77
2021/08/11 06:52:05;;;;;;;5.80;5.33;;;22.10;95.70;;;;;;5050805;28;20260;-77
2021/08/11 06:54:31;;;;;;;5.53;5.03;;;22.00;96.00;;;;;;5048418;28;20218;-79
2021/08/11 06:56:56;;;;;;;6.50;5.90;;;22.20;96.80;;;;;;5050782;28;20448;-75
2021/08/11 06:59:22;;;;;;;5.30;4.90;;;21.90;96.80;;;;;;5045391;28;20655;-75
2021/08/11 07:01:47;;;;;;;5.40;4.90;;;21.70;97.00;;;;;;5046702;28;20280;-75
2021/08/11 07:04:13;;;;;;;5.07;4.57;;;21.80;96.40;;;;;;5045008;28;20326;-75
2021/08/11 07:06:40;;;;;;;5.20;4.80;;;22.10;95.40;;;;;;5042003;28;20222;-76
2021/08/11 07:09:08;;;;;;;6.07;5.17;;;22.20;95.50;;;;;;5041835;28;20204;-75
2021/08/11 07:11:40;;;;;;;6.13;5.60;;;22.60;95.10;;;;;;5045603;28;20426;-75
2021/08/11 07:14:05;;;;;;;5.00;4.50;;;23.20;92.80;;;;;;5038472;28;20431;-74
2021/08/11 07:16:31;;;;;;;5.07;4.63;;;23.20;92.20;;;;;;5047342;28;20855;-75
2021/08/11 07:18:59;;;;;;;5.20;4.80;;;23.30;91.70;;;;;;5048552;28;20271;-75
2021/08/11 07:21:25;;;;;;;5.10;4.70;;;23.10;90.20;;;;;;5045886;28;20682;-74
2021/08/11 07:23:50;;;;;;;7.63;4.43;;;23.60;90.60;;;;;;5046468;28;20440;-75
2021/08/11 07:26:18;;;;;;;6.00;5.10;;;23.40;90.30;;;;;;5045890;28;20193;-75
2021/08/11 07:28:43;;;;;;;5.40;4.83;;;23.40;90.00;;;;;;5042144;28;20179;-75
2021/08/11 07:31:09;;;;;;;5.00;4.50;;;23.50;89.20;;;;;;5043460;28;20901;-75
2021/08/11 07:33:34;;;;;;;5.27;4.80;;;23.60;89.10;;;;;;5047253;28;20274;-75
2021/08/11 07:36:00;;;;;;;5.13;4.73;;;23.60;88.40;;;;;;5049030;28;20234;-75
2021/08/11 07:38:25;;;;;;;4.80;4.40;;;23.90;86.50;;;;;;5044928;28;20223;-75
2021/08/11 07:40:51;;;;;;;5.07;4.67;;;23.80;84.40;;;;;;5042951;28;20189;-75
2021/08/11 07:43:16;;;;;;;5.30;4.80;;;24.10;81.70;;;;;;5046858;28;20193;-75
2021/08/11 07:45:42;;;;;;;5.30;4.80;;;24.20;81.00;;;;;;5048795;28;20598;-75
2021/08/11 07:48:07;;;;;;;4.97;4.57;;;24.50;79.50;;;;;;5048552;28;20280;-75
2021/08/11 07:50:37;;;;;;;5.17;4.70;;;24.50;79.00;;;;;;5046589;28;20211;-76
2021/08/11 07:53:03;;;;;;;5.20;4.80;;;25.00;78.30;;;;;;5050339;28;20221;-76
2021/08/11 07:55:29;;;;;;;6.63;5.10;;;25.20;76.20;;;;;;5044676;28;20526;-77
2021/08/11 07:57:54;;;;;;;4.90;4.50;;;25.20;75.90;;;;;;5042816;28;20184;-76
2021/08/11 08:00:22;;;;;;;6.20;4.50;;;24.60;72.90;;;;;;5042180;28;20215;-76
2021/08/11 08:02:48;;;;;;;5.50;4.80;;;24.50;72.40;;;;;;5045805;28;20197;-76
2021/08/11 08:05:14;;;;;;;6.03;5.00;;;24.60;74.00;;;;;;5044584;28;20467;-76
2021/08/11 08:07:40;;;;;;;5.23;4.70;;;24.70;74.30;;;;;;5041632;28;20433;-76
2021/08/11 08:10:06;;;;;;;5.03;4.60;;;24.40;74.80;;;;;;5050123;28;20226;-75
2021/08/11 08:12:32;;;;;;;5.77;5.27;;;24.50;73.30;;;;;;5045642;28;20212;-76
2021/08/11 08:14:58;;;;;;;5.13;4.73;;;24.40;72.20;;;;;;5046180;28;20466;-77
2021/08/11 08:17:23;;;;;;;4.80;4.40;;;24.20;72.60;;;;;;5041816;28;20960;-76
2021/08/11 08:19:49;;;;;;;5.20;4.70;;;24.50;72.00;;;;;;5041673;28;20544;-76
2021/08/11 08:22:16;;;;;;;4.63;4.23;;;24.40;71.80;;;;;;5042444;28;20195;-76
2021/08/11 08:24:45;;;;;;;6.70;5.33;;;24.50;71.30;;;;;;5043964;28;20183;-76
2021/08/11 08:27:11;;;;;;;5.03;4.63;;;24.60;70.70;;;;;;5041033;28;20808;-76
2021/08/11 08:29:37;;;;;;;4.57;4.17;;;24.60;70.40;;;;;;5045060;28;20510;-76
2021/08/11 08:32:03;;;;;;;5.73;4.87;;;24.70;70.30;;;;;;5045262;28;20210;-75
2021/08/11 08:34:29;;;;;;;5.30;4.77;;;24.80;69.50;;;;;;5045575;28;20180;-75
2021/08/11 08:36:54;;;;;;;4.70;4.23;;;24.80;70.10;;;;;;5053080;28;20440;-76
2021/08/11 08:39:20;;;;;;;5.67;5.17;;;24.90;71.00;;;;;;5040851;28;20182;-76
2021/08/11 08:41:46;;;;;;;5.27;4.27;;;24.80;70.30;;;;;;5045247;28;20176;-76
2021/08/11 08:44:13;;;;;;;5.90;5.40;;;24.90;70.70;;;;;;5043813;28;20264;-76
2021/08/11 08:46:41;;;;;;;5.57;5.10;;;25.20;68.60;;;;;;5045708;28;20444;-77
2021/08/11 08:49:07;;;;;;;5.40;4.90;;;25.20;68.60;;;;;;5041870;28;20446;-76
2021/08/11 08:51:40;;;;;;;6.13;5.03;;;25.40;68.70;;;;;;5043192;28;20518;-76
2021/08/11 08:54:06;;;;;;;5.43;4.93;;;26.50;69.10;;;;;;5044047;28;20436;-77
2021/08/11 08:56:31;;;;;;;4.60;4.30;;;28.00;64.80;;;;;;5045165;28;20471;-77
2021/08/11 08:58:57;;;;;;;5.10;4.70;;;29.60;58.60;;;;;;5046532;28;20481;-78
2021/08/11 09:01:23;;;;;;;6.27;4.50;;;31.20;53.50;;;;;;5043458;28;20182;-78
2021/08/11 09:03:49;;;;;;;4.13;3.83;;;32.70;49.30;;;;;;5041658;28;20863;-77
2021/08/11 09:06:14;;;;;;;5.40;5.00;;;33.90;43.70;;;;;;5043021;28;20196;-78
2021/08/11 09:09:04;;;;;;;4.43;4.13;;;34.90;42.00;;;;;;5035707;28;20181;-79
2021/08/11 09:11:30;;;;;;;4.80;4.40;;;36.00;39.10;;;;;;5037875;28;20191;-78
2021/08/11 09:14:25;;;;;;;7.60;5.17;;;36.90;38.10;;;;;;5043309;28;20485;-79
2021/08/11 09:16:57;;;;;;;5.50;5.10;;;37.80;36.10;;;;;;5031855;28;20198;-79
2021/08/11 09:19:23;;;;;;;5.23;4.83;;;38.60;33.80;;;;;;5043325;28;20491;-78
2021/08/11 09:22:00;;;;;;;5.07;4.47;;;39.30;32.10;;;;;;5046308;28;20429;-78
2021/08/11 09:24:26;;;;;;;4.37;4.07;;;39.80;31.00;;;;;;5047059;28;20436;-79
2021/08/11 09:26:54;;;;;;;5.10;4.10;;;40.30;29.20;;;;;;5046897;28;20445;-79
2021/08/11 09:29:20;;;;;;;5.20;4.67;;;40.30;28.90;;;;;;5045336;28;20190;-78
2021/08/11 09:31:45;;;;;;;5.37;4.87;;;40.30;29.00;;;;;;5042778;28;20512;-79
2021/08/11 09:34:12;;;;;;;4.80;4.50;;;40.60;29.30;;;;;;5041699;28;20456;-78
2021/08/11 09:36:52;;;;;;;4.63;4.20;;;40.90;28.60;;;;;;5043026;28;20216;-76
2021/08/11 09:39:18;;;;;;;4.30;4.00;;;41.00;28.30;;;;;;5038389;28;20436;-77
2021/08/11 09:42:04;;;;;;;4.13;3.83;;;40.10;29.20;;;;;;5044598;28;20417;-77
2021/08/11 09:44:30;;;;;;;4.50;4.13;;;40.60;28.70;;;;;;5037149;28;20947;-78
2021/08/11 09:47:14;;;;;;;5.20;4.10;;;41.30;27.60;;;;;;5045975;28;21636;-77
2021/08/11 09:49:40;;;;;;;4.57;4.20;;;41.90;26.60;;;;;;5044297;28;20444;-78
2021/08/11 09:52:05;;;;;;;3.93;3.70;;;42.30;26.90;;;;;;5043628;28;20915;-77
2021/08/11 09:54:32;;;;;;;4.40;4.10;;;42.60;25.50;;;;;;5046364;28;20528;-78
2021/08/11 09:56:58;;;;;;;3.97;3.67;;;42.60;26.20;;;;;;5043100;28;20241;-77
2021/08/11 09:59:24;;;;;;;4.13;3.73;;;43.10;26.00;;;;;;5043108;28;20445;-76
2021/08/11 10:01:50;;;;;;;4.33;3.93;;;43.20;26.20;;;;;;5042090;28;20464;-75
2021/08/11 10:04:16;;;;;;;4.43;4.13;;;43.70;25.60;;;;;;5044038;28;20476;-77
2021/08/11 10:06:43;;;;;;;4.20;3.90;;;43.60;24.70;;;;;;5044970;28;20852;-78
2021/08/11 10:09:17;;;;;;;3.90;3.70;;;43.90;24.60;;;;;;5039555;28;20676;-79
2021/08/11 10:11:44;;;;;;;4.13;3.83;;;43.90;24.50;;;;;;5048186;28;20444;-78
2021/08/11 10:14:11;;;;;;;4.43;4.03;;;44.00;24.40;;;;;;5046232;28;21368;-77
2021/08/11 10:16:38;;;;;;;4.20;3.90;;;44.50;24.30;;;;;;5044630;28;20441;-77
2021/08/11 10:19:05;;;;;;;4.70;4.30;;;45.00;24.30;;;;;;5044474;28;20433;-78
2021/08/11 10:21:53;;;;;;;4.00;3.70;;;45.50;23.00;;;;;;5044026;28;20441;-77
2021/08/11 10:24:18;;;;;;;4.90;4.50;;;45.50;22.60;;;;;;5044117;28;20460;-77
2021/08/11 10:26:48;;;;;;;4.40;4.00;;;45.40;22.70;;;;;;5048482;28;20425;-76
2021/08/11 10:29:15;;;;;;;4.70;4.30;;;45.60;22.70;;;;;;5046691;28;20190;-78
2021/08/11 10:31:40;;;;;;;4.33;4.00;;;46.20;22.50;;;;;;5047420;28;20931;-78
2021/08/11 10:34:10;;;;;;;4.93;4.47;;;46.70;22.00;;;;;;5045505;28;20579;-77
2021/08/11 10:36:39;;;;;;;4.27;3.97;;;45.20;21.60;;;;;;5049651;28;20623;-77
2021/08/11 10:39:05;;;;;;;4.43;4.13;;;43.50;24.00;;;;;;5047925;28;20472;-78
2021/08/11 10:41:33;;;;;;;4.57;4.17;;;42.20;25.30;;;;;;5047858;28;20437;-77
2021/08/11 10:44:00;;;;;;;4.30;4.00;;;41.40;26.90;;;;;;5047862;28;20219;-77
2021/08/11 10:46:38;;;;;;;4.23;3.97;;;41.60;27.50;;;;;;5046955;28;20934;-77
2021/08/11 10:49:05;;;;;;;4.90;4.60;;;41.30;25.80;;;;;;5048129;28;20437;-79
2021/08/11 10:51:48;;;;;;;4.90;4.40;;;40.30;27.10;;;;;;5045297;28;20793;-77
2021/08/11 10:54:14;;;;;;;4.30;4.00;;;38.80;27.30;;;;;;5045906;28;20433;-77
2021/08/11 10:56:51;;;;;;;4.33;4.03;;;37.50;29.10;;;;;;5045379;28;20421;-77
2021/08/11 10:59:23;;;;;;;5.53;5.13;;;36.50;30.70;;;;;;5043600;28;20437;-77
2021/08/11 11:01:53;;;;;;;5.37;4.80;;;35.60;32.40;;;;;;5046855;28;20804;-77
2021/08/11 11:04:38;;;;;;;5.13;4.73;;;34.80;34.20;;;;;;5049250;28;20437;-77
2021/08/11 11:07:13;;;;;;;4.30;4.00;;;34.00;36.00;;;;;;5047523;28;20436;-77
2021/08/11 11:09:40;;;;;;;5.33;4.50;;;33.50;37.10;;;;;;5042230;28;20432;-76
2021/08/11 11:12:18;;;;;;;4.87;4.47;;;33.00;38.20;;;;;;5044227;28;20527;-76
2021/08/11 11:14:51;;;;;;;5.57;4.33;;;32.50;40.20;;;;;;5039987;28;20424;-77
2021/08/11 11:17:26;;;;;;;5.60;5.00;;;31.90;41.50;;;;;;5045306;28;20949;-77
2021/08/11 11:20:21;;;;;;;4.73;4.37;;;31.40;42.70;;;;;;5040866;28;20508;-76
2021/08/11 11:22:51;;;;;;;5.47;5.07;;;30.80;43.60;;;;;;5014283;28;20472;-76
2021/08/11 11:25:18;;;;;;;5.10;4.70;;;31.20;45.70;;;;;;5044341;28;20424;-75
2021/08/11 11:27:44;;;;;;;5.67;5.07;;;33.30;44.70;;;;;;5044212;28;20428;-76
2021/08/11 11:30:14;;;;;;;5.10;4.80;;;35.70;40.00;;;;;;5046262;28;20447;-75
2021/08/11 11:32:41;;;;;;;4.93;4.53;;;37.40;35.20;;;;;;5036914;28;20209;-75
2021/08/11 11:35:23;;;;;;;5.20;4.80;;;37.50;32.40;;;;;;5040847;28;20472;-75
2021/08/11 11:38:07;;;;;;;5.37;4.97;;;36.80;33.70;;;;;;5041844;28;20483;-75
2021/08/11 11:40:53;;;;;;;4.70;4.40;;;36.30;34.10;;;;;;5043681;28;20798;-75
2021/08/11 11:43:26;;;;;;;5.20;4.80;;;37.00;35.40;;;;;;5039142;28;20825;-76
2021/08/11 11:45:53;;;;;;;5.30;4.80;;;39.20;33.40;;;;;;5042020;28;20525;-74
2021/08/11 11:48:19;;;;;;;4.50;4.10;;;41.10;28.70;;;;;;5041434;28;20511;-73
2021/08/11 11:50:47;;;;;;;5.50;5.00;;;42.70;26.90;;;;;;5050127;28;20994;-74
2021/08/11 11:53:20;;;;;;;5.33;4.83;;;43.60;25.70;;;;;;5048585;28;20210;-74
2021/08/11 11:55:46;;;;;;;5.47;5.07;;;44.70;24.20;;;;;;5044404;28;20836;-74
2021/08/11 11:58:26;;;;;;;4.60;4.30;;;45.80;23.80;;;;;;5044325;28;20433;-73
2021/08/11 12:01:00;;;;;;;5.03;4.63;;;45.80;22.90;;;;;;5045992;28;20797;-75
2021/08/11 12:03:38;;;;;;;4.00;3.70;;;44.00;23.50;;;;;;5047917;28;20469;-74
2021/08/11 12:06:04;;;;;;;4.93;4.57;;;41.80;25.90;;;;;;5044523;28;20425;-74
2021/08/11 12:08:31;;;;;;;6.20;4.70;;;40.70;28.00;;;;;;5046063;28;20838;-74
2021/08/11 12:11:12;;;;;;;4.47;4.07;;;41.40;28.70;;;;;;5046285;28;20433;-74
2021/08/11 12:13:50;;;;;;;4.63;4.23;;;42.90;28.30;;;;;;5047450;28;20838;-74
2021/08/11 12:16:18;;;;;;;4.53;4.23;;;43.30;27.00;;;;;;5042031;28;20486;-75
2021/08/11 12:18:47;;;;;;;4.50;4.20;;;44.50;25.10;;;;;;5038720;28;20527;-75
2021/08/11 12:21:15;;;;;;;4.33;3.93;;;45.40;24.40;;;;;;5044086;28;20497;-75
2021/08/11 12:23:41;;;;;;;5.40;3.77;;;45.70;23.40;;;;;;5042840;28;20465;-75
2021/08/11 12:26:16;;;;;;;5.37;4.30;;;46.10;23.90;;;;;;5045767;28;20457;-75
2021/08/11 12:28:47;;;;;;;4.87;4.47;;;46.20;23.80;;;;;;5045502;28;20463;-76
2021/08/11 12:31:17;;;;;;;4.80;4.50;;;46.60;23.90;;;;;;5043297;28;20691;-75
2021/08/11 12:33:45;;;;;;;4.27;3.97;;;47.30;22.90;;;;;;5045574;28;20452;-76
2021/08/11 12:36:17;;;;;;;4.80;4.40;;;47.60;22.10;;;;;;5040214;28;20586;-75
2021/08/11 12:38:42;;;;;;;4.17;3.80;;;47.90;21.50;;;;;;5044974;28;20472;-75
2021/08/11 12:41:22;;;;;;;4.33;4.00;;;47.60;21.50;;;;;;5046798;28;20429;-75
2021/08/11 12:43:49;;;;;;;4.53;4.13;;;47.20;22.00;;;;;;5045239;28;20214;-76
2021/08/11 12:46:15;;;;;;;5.37;4.87;;;47.10;21.90;;;;;;5046606;28;20430;-75
2021/08/11 12:48:41;;;;;;;5.60;5.20;;;45.60;22.30;;;;;;5047178;28;20436;-75
2021/08/11 12:51:28;;;;;;;5.00;4.67;;;44.80;23.80;;;;;;5046469;28;20934;-75
2021/08/11 12:54:02;;;;;;;4.67;4.27;;;44.30;24.70;;;;;;5042345;28;20501;-75